createdAt,value
2023-02-17T00:01:36.769Z,67.86
2023-02-17T00:04:07.898Z,67.60
2023-02-17T00:06:39.459Z,67.60
2023-02-17T00:09:10.522Z,67.92
2023-02-17T00:11:41.761Z,67.78
2023-02-17T00:14:15.404Z,67.82
2023-02-17T00:16:47.384Z,67.88
2023-02-17T00:19:25.281Z,67.94
2023-02-17T00:21:59.978Z,67.59
2023-02-17T00:24:35.117Z,67.68
2023-02-17T00:27:05.409Z,67.66
2023-02-17T00:29:36.680Z,67.99
2023-02-17T00:32:10.601Z,67.73
2023-02-17T00:34:42.497Z,67.79
2023-02-17T00:37:13.626Z,67.69
2023-02-17T00:39:44.863Z,67.83
2023-02-17T00:42:15.801Z,67.88
2023-02-17T00:44:47.525Z,67.72
2023-02-17T00:47:18.514Z,67.65
2023-02-17T00:49:51.426Z,67.90
2023-02-17T00:52:23.124Z,67.54
2023-02-17T00:54:54.682Z,67.72
2023-02-17T00:57:26.423Z,67.64
2023-02-17T00:59:58.644Z,67.77
2023-02-17T01:02:30.789Z,67.74
2023-02-17T01:05:06.551Z,67.73
2023-02-17T01:07:37.728Z,67.56
2023-02-17T01:10:10.882Z,67.85
2023-02-17T01:12:42.797Z,67.73
2023-02-17T01:15:14.709Z,67.70
2023-02-17T01:17:46.746Z,68.01
2023-02-17T01:20:18.360Z,67.85
2023-02-17T01:22:49.505Z,67.81
2023-02-17T01:25:21.080Z,67.94
2023-02-17T01:27:52.944Z,67.89
2023-02-17T01:30:25.231Z,67.86
2023-02-17T01:32:56.484Z,67.99
2023-02-17T01:35:27.698Z,68.11
2023-02-17T01:37:58.736Z,67.80
2023-02-17T01:40:30.380Z,67.96
2023-02-17T01:43:02.060Z,67.84
2023-02-17T01:45:47.786Z,67.94
2023-02-17T01:48:22.556Z,67.88
2023-02-17T01:50:59.532Z,67.94
2023-02-17T01:53:36.764Z,68.05
2023-02-17T01:56:10.992Z,67.82
2023-02-17T01:58:46.169Z,67.99
2023-02-17T02:01:18.298Z,68.17
2023-02-17T02:03:50.513Z,67.94
2023-02-17T02:06:25.050Z,67.94
2023-02-17T02:09:00.723Z,68.10
2023-02-17T02:11:33.184Z,68.14
2023-02-17T02:14:06.928Z,67.92
2023-02-17T02:16:50.046Z,67.88
2023-02-17T02:19:38.838Z,67.86
2023-02-17T02:22:38.769Z,67.98
2023-02-17T02:25:25.403Z,67.96
2023-02-17T02:28:06.606Z,67.92
2023-02-17T02:30:53.736Z,67.72
2023-02-17T02:33:33.839Z,67.67
2023-02-17T02:36:12.584Z,67.87
2023-02-17T02:38:48.806Z,68.04
2023-02-17T02:41:24.249Z,67.92
2023-02-17T02:43:56.101Z,67.87
2023-02-17T02:46:27.302Z,67.97
2023-02-17T02:48:58.442Z,67.75
2023-02-17T02:51:40.659Z,68.31
2023-02-17T02:54:38.256Z,68.30
2023-02-17T02:57:31.976Z,68.07
2023-02-17T03:00:13.289Z,68.10
2023-02-17T03:02:52.464Z,68.05
2023-02-17T03:05:34.132Z,67.97
2023-02-17T03:08:09.890Z,67.97
2023-02-17T03:10:48.434Z,68.23
2023-02-17T03:13:20.586Z,68.29
2023-02-17T03:15:51.952Z,68.35
2023-02-17T03:18:22.958Z,68.44
2023-02-17T03:20:59.227Z,68.19
2023-02-17T03:23:30.237Z,68.11
2023-02-17T03:26:01.195Z,68.15
2023-02-17T03:28:33.229Z,68.24
2023-02-17T03:31:05.346Z,68.11
2023-02-17T03:33:36.575Z,68.12
2023-02-17T03:36:08.970Z,68.33
2023-02-17T03:38:40.060Z,68.40
2023-02-17T03:41:11.235Z,68.51
2023-02-17T03:43:42.275Z,68.49
2023-02-17T03:46:16.426Z,68.54
2023-02-17T03:48:47.726Z,68.67
2023-02-17T03:51:22.355Z,68.59
2023-02-17T03:53:53.760Z,68.80
2023-02-17T03:56:25.213Z,68.73
2023-02-17T03:58:56.296Z,68.64
2023-02-17T04:01:27.470Z,68.66
2023-02-17T04:03:58.536Z,68.72
2023-02-17T04:06:29.980Z,69.12
2023-02-17T04:09:00.905Z,69.17
2023-02-17T04:11:32.581Z,69.11
2023-02-17T04:14:03.696Z,69.15
2023-02-17T04:16:34.722Z,69.06
2023-02-17T04:19:06.375Z,69.22
2023-02-17T04:21:37.520Z,69.44
2023-02-17T04:24:08.966Z,69.49
2023-02-17T04:26:40.221Z,69.33
2023-02-17T04:29:11.203Z,69.22
2023-02-17T04:31:42.499Z,69.46
2023-02-17T04:34:13.582Z,69.32
2023-02-17T04:36:44.666Z,69.40
2023-02-17T04:39:15.729Z,69.49
2023-02-17T04:41:46.867Z,69.38
2023-02-17T04:44:17.953Z,69.35
2023-02-17T04:46:48.914Z,69.60
2023-02-17T04:49:19.852Z,69.55
2023-02-17T04:51:50.885Z,69.74
2023-02-17T04:54:23.437Z,69.94
2023-02-17T04:56:54.963Z,69.90
2023-02-17T04:59:26.031Z,69.94
2023-02-17T05:01:57.176Z,70.00
2023-02-17T05:04:28.968Z,70.06
2023-02-17T05:07:01.035Z,70.25
2023-02-17T05:09:32.258Z,70.01
2023-02-17T05:12:05.672Z,70.33
2023-02-17T05:14:41.189Z,70.06
2023-02-17T05:17:12.203Z,70.41
2023-02-17T05:19:43.171Z,70.08
2023-02-17T05:22:15.641Z,70.23
2023-02-17T05:24:46.574Z,70.45
2023-02-17T05:27:17.528Z,70.36
2023-02-17T05:29:56.576Z,70.45
2023-02-17T05:32:27.520Z,70.46
2023-02-17T05:34:58.460Z,70.36
2023-02-17T05:37:29.462Z,70.75
2023-02-17T05:40:00.492Z,70.72
2023-02-17T05:42:37.703Z,70.69
2023-02-17T05:45:09.580Z,70.69
2023-02-17T05:47:40.510Z,70.97
2023-02-17T05:50:14.433Z,70.81
2023-02-17T05:52:48.161Z,70.78
2023-02-17T05:55:24.451Z,70.98
2023-02-17T05:58:16.381Z,71.03
2023-02-17T06:00:48.119Z,71.01
2023-02-17T06:03:20.393Z,71.07
2023-02-17T06:05:53.938Z,71.01
2023-02-17T06:08:24.969Z,70.96
2023-02-17T06:11:18.978Z,71.10
2023-02-17T06:13:50.120Z,70.91
2023-02-17T06:16:23.433Z,71.15
2023-02-17T06:19:18.726Z,70.92
2023-02-17T06:21:49.698Z,71.09
2023-02-17T06:25:03.871Z,71.24
2023-02-17T06:27:35.276Z,71.08
2023-02-17T06:30:30.720Z,71.06
2023-02-17T06:33:05.753Z,71.13
2023-02-17T06:35:37.008Z,71.28
2023-02-17T06:38:30.305Z,71.02
2023-02-17T06:41:01.442Z,71.22
2023-02-17T06:43:32.567Z,71.00
2023-02-17T06:46:09.507Z,70.86
2023-02-17T06:48:43.742Z,70.70
2023-02-17T06:51:18.874Z,70.79
2023-02-17T06:53:55.434Z,70.73
2023-02-17T06:56:26.672Z,71.06
2023-02-17T06:58:57.996Z,71.08
2023-02-17T07:01:29.439Z,71.05
2023-02-17T07:04:01.231Z,70.93
2023-02-17T07:06:34.837Z,70.93
2023-02-17T07:09:56.226Z,70.80
2023-02-17T07:12:29.044Z,70.72
2023-02-17T07:15:22.126Z,70.73
2023-02-17T07:18:19.337Z,70.88
2023-02-17T07:20:50.477Z,70.59
2023-02-17T07:23:21.594Z,70.60
2023-02-17T07:25:55.178Z,70.27
2023-02-17T07:28:26.979Z,70.55
2023-02-17T07:30:58.346Z,70.49
2023-02-17T07:33:30.374Z,70.25
2023-02-17T07:36:05.808Z,70.09
2023-02-17T07:38:39.530Z,69.92
2023-02-17T07:41:24.843Z,69.75
2023-02-17T07:43:59.047Z,69.54
2023-02-17T07:46:31.189Z,69.36
2023-02-17T07:49:02.179Z,69.35
2023-02-17T07:51:36.912Z,69.28
2023-02-17T07:54:08.326Z,69.11
2023-02-17T07:56:39.435Z,69.09
2023-02-17T07:59:17.811Z,68.92
2023-02-17T08:01:51.929Z,68.89
2023-02-17T08:04:25.750Z,68.91
2023-02-17T08:06:57.103Z,68.77
2023-02-17T08:09:48.875Z,68.85
2023-02-17T08:12:39.189Z,68.70
2023-02-17T08:15:13.528Z,68.59
2023-02-17T08:17:58.499Z,68.57
2023-02-17T08:20:33.112Z,68.51
2023-02-17T08:23:12.900Z,68.43
2023-02-17T08:25:44.004Z,68.38
2023-02-17T08:28:18.207Z,68.25
2023-02-17T08:30:52.987Z,67.90
2023-02-17T08:33:24.231Z,68.04
2023-02-17T08:35:55.607Z,68.08
2023-02-17T08:38:27.308Z,67.94
2023-02-17T08:40:58.404Z,67.83
2023-02-17T08:43:40.531Z,67.91
2023-02-17T08:46:14.013Z,67.97
2023-02-17T08:48:46.005Z,67.87
2023-02-17T08:51:27.989Z,67.80
2023-02-17T08:54:13.162Z,67.84
2023-02-17T08:56:44.031Z,68.09
2023-02-17T08:59:15.711Z,68.02
2023-02-17T09:22:31.916Z,66.52
2023-02-17T09:25:00.978Z,66.67
2023-02-17T09:27:31.065Z,66.79
2023-02-17T09:30:04.496Z,66.76
2023-02-17T09:32:33.195Z,66.93
2023-02-17T09:38:46.236Z,67.12
2023-02-17T09:41:39.355Z,67.08
2023-02-17T09:44:17.472Z,67.05
2023-02-17T09:47:18.616Z,67.26
2023-02-17T09:49:52.245Z,67.50
2023-02-17T09:52:26.240Z,67.48
2023-02-17T09:55:03.600Z,67.44
2023-02-17T09:57:37.238Z,67.47
2023-02-17T10:00:49.297Z,67.58
2023-02-17T10:03:24.014Z,67.64
2023-02-17T10:05:56.922Z,67.62
2023-02-17T10:08:45.259Z,67.52
2023-02-17T10:11:42.926Z,67.50
2023-02-17T10:14:18.187Z,67.55
2023-02-17T10:16:51.859Z,67.54
2023-02-17T10:19:27.266Z,67.68
2023-02-17T10:22:03.332Z,67.75
2023-02-17T10:24:31.946Z,67.94
2023-02-17T10:27:22.369Z,67.90
2023-02-17T10:30:05.779Z,68.13
2023-02-17T10:32:56.869Z,68.22
2023-02-17T10:35:38.145Z,68.37
2023-02-17T10:38:15.490Z,68.36
2023-02-17T10:40:51.321Z,68.41
2023-02-17T10:43:26.560Z,68.57
2023-02-17T10:45:55.766Z,68.75
2023-02-17T10:48:32.576Z,68.68
2023-02-17T10:51:01.826Z,68.81
2023-02-17T10:53:34.576Z,68.91
2023-02-17T10:56:08.764Z,69.16
2023-02-17T10:58:42.956Z,69.11
2023-02-17T11:01:18.517Z,69.38
2023-02-17T11:03:47.236Z,69.44
2023-02-17T11:06:21.688Z,69.37
2023-02-17T11:08:56.054Z,69.24
2023-02-17T11:11:29.953Z,69.36
2023-02-17T11:14:13.454Z,69.39
2023-02-17T11:16:46.566Z,69.37
2023-02-17T11:19:25.096Z,69.51
2023-02-17T11:21:55.673Z,69.30
2023-02-17T11:24:25.405Z,69.35
2023-02-17T11:27:00.002Z,69.30
2023-02-17T11:29:30.065Z,69.04
2023-02-17T11:32:04.213Z,69.28
2023-02-17T11:34:36.026Z,69.29
2023-02-17T11:37:21.491Z,69.31
2023-02-17T11:39:52.837Z,69.47
2023-02-17T11:42:23.136Z,69.60
2023-02-17T11:45:17.489Z,69.55
2023-02-17T11:47:59.078Z,69.44
2023-02-17T11:50:41.740Z,69.52
2023-02-17T11:53:26.347Z,69.78
2023-02-17T11:56:13.860Z,70.01
2023-02-17T11:59:15.813Z,70.05
2023-02-17T12:02:02.009Z,69.99
2023-02-17T12:04:32.045Z,69.94
2023-02-17T12:07:29.720Z,70.01
2023-02-17T12:10:06.479Z,70.04
2023-02-17T12:12:51.428Z,70.15
2023-02-17T12:15:36.708Z,70.24
2023-02-17T12:18:40.416Z,70.23
2023-02-17T12:21:15.961Z,70.40
2023-02-17T12:24:05.777Z,70.55
2023-02-17T12:26:46.913Z,70.53
2023-02-17T12:29:30.643Z,70.48
2023-02-17T12:32:18.134Z,70.64
2023-02-17T12:34:54.683Z,70.72
2023-02-17T12:37:27.261Z,70.90
2023-02-17T12:40:02.371Z,70.86
2023-02-17T12:42:35.141Z,70.83
2023-02-17T12:45:08.385Z,70.87
2023-02-17T12:48:01.708Z,70.83
2023-02-17T12:50:37.431Z,70.96
2023-02-17T12:54:09.131Z,71.19
2023-02-17T12:57:11.659Z,71.23
2023-02-17T12:59:51.976Z,71.30
2023-02-17T13:02:22.662Z,71.26
2023-02-17T13:04:53.647Z,71.36
2023-02-17T13:07:33.289Z,71.45
2023-02-17T13:10:02.831Z,71.42
2023-02-17T13:12:35.711Z,71.63
2023-02-17T13:15:23.011Z,71.69
2023-02-17T13:18:00.797Z,71.77
2023-02-17T13:20:45.256Z,72.01
2023-02-17T13:23:26.962Z,72.12
2023-02-17T13:26:13.312Z,72.11
2023-02-17T13:28:42.759Z,72.15
2023-02-17T13:31:18.633Z,72.18
2023-02-17T13:33:52.480Z,72.22
2023-02-17T13:36:35.013Z,72.37
2023-02-17T13:39:08.516Z,72.46
2023-02-17T13:41:47.886Z,72.59
2023-02-17T13:44:28.441Z,72.68
2023-02-17T13:47:00.820Z,72.70
2023-02-17T13:49:34.522Z,72.84
2023-02-17T13:52:15.805Z,72.88
2023-02-17T13:54:53.463Z,72.99
2023-02-17T13:57:29.385Z,72.98
2023-02-17T14:00:21.688Z,73.04
2023-02-17T14:03:18.909Z,73.16
2023-02-17T14:05:51.825Z,73.32
2023-02-17T14:08:26.858Z,73.41
2023-02-17T14:10:56.450Z,73.38
2023-02-17T14:13:25.862Z,73.61
2023-02-17T14:16:06.997Z,73.67
2023-02-17T14:18:39.384Z,73.75
2023-02-17T14:21:26.999Z,73.86
2023-02-17T14:23:58.685Z,73.75
2023-02-17T14:26:35.700Z,73.86
2023-02-17T14:29:06.667Z,73.94
2023-02-17T14:31:40.069Z,74.03
2023-02-17T14:34:24.152Z,74.12
2023-02-17T14:36:52.446Z,74.19
2023-02-17T14:39:21.539Z,74.07
2023-02-17T14:41:50.364Z,74.14
2023-02-17T14:44:19.100Z,74.43
2023-02-17T14:46:47.660Z,74.35
2023-02-17T14:49:15.964Z,74.40
2023-02-17T14:51:44.313Z,74.37
2023-02-17T14:54:15.487Z,74.24
2023-02-17T14:56:48.307Z,74.36
2023-02-17T14:59:17.348Z,74.34
2023-02-17T15:01:47.936Z,74.45
2023-02-17T15:04:16.342Z,74.49
2023-02-17T15:06:47.478Z,74.66
2023-02-17T15:09:17.372Z,74.66
2023-02-17T15:11:48.337Z,74.80
2023-02-17T15:14:19.514Z,74.80
2023-02-17T15:16:48.970Z,74.83
2023-02-17T15:19:17.895Z,74.88
2023-02-17T15:21:49.068Z,75.01
2023-02-17T15:24:20.880Z,75.01
2023-02-17T15:26:49.235Z,75.02
2023-02-17T15:29:22.530Z,75.09
2023-02-17T15:31:53.708Z,75.20
2023-02-17T15:34:25.311Z,75.19
2023-02-17T15:36:53.919Z,75.19
2023-02-17T15:39:22.126Z,75.22
2023-02-17T15:41:52.309Z,75.34
2023-02-17T15:44:23.863Z,75.38
2023-02-17T15:46:55.537Z,75.45
2023-02-17T15:49:25.509Z,75.39
2023-02-17T15:51:53.830Z,75.49
2023-02-17T15:54:22.565Z,75.46
2023-02-17T15:56:53.533Z,75.67
2023-02-17T15:59:25.604Z,75.54
2023-02-17T16:01:55.445Z,75.73
2023-02-17T16:04:23.633Z,75.64
2023-02-17T16:06:52.726Z,75.82
2023-02-17T16:09:22.430Z,75.83
2023-02-17T16:11:53.453Z,75.73
2023-02-17T16:14:28.262Z,75.80
2023-02-17T16:16:56.534Z,75.88
2023-02-17T16:19:25.396Z,75.96
2023-02-17T16:21:53.682Z,75.91
2023-02-17T16:24:21.872Z,75.95
2023-02-17T16:26:50.297Z,76.03
2023-02-17T16:29:20.976Z,76.12
2023-02-17T16:31:50.307Z,76.13
2023-02-17T16:34:21.385Z,76.20
2023-02-17T16:36:50.694Z,76.22
2023-02-17T16:39:21.116Z,76.20
2023-02-17T16:41:49.893Z,76.20
2023-02-17T16:44:22.445Z,76.34
2023-02-17T16:46:52.619Z,76.45
2023-02-17T16:49:31.257Z,76.54
2023-02-17T16:52:00.365Z,76.40
2023-02-17T16:54:28.750Z,76.43
2023-02-17T16:56:58.227Z,76.59
2023-02-17T16:59:27.715Z,76.53
2023-02-17T17:01:56.303Z,76.64
2023-02-17T17:04:24.713Z,76.77
2023-02-17T17:06:53.397Z,76.70
2023-02-17T17:09:23.877Z,76.75
2023-02-17T17:11:52.116Z,76.81
2023-02-17T17:14:21.895Z,76.85
2023-02-17T17:16:55.315Z,76.82
2023-02-17T17:19:23.789Z,76.84
2023-02-17T17:21:52.195Z,76.85
2023-02-17T17:24:21.167Z,76.82
2023-02-17T17:26:51.074Z,76.85
2023-02-17T17:29:20.252Z,76.87
2023-02-17T17:31:49.035Z,76.87
2023-02-17T17:34:17.518Z,77.05
2023-02-17T17:36:47.272Z,76.95
2023-02-17T17:39:17.283Z,76.98
2023-02-17T17:41:46.131Z,77.02
2023-02-17T17:44:16.189Z,77.05
2023-02-17T17:46:44.837Z,77.08
2023-02-17T17:49:16.129Z,77.07
2023-02-17T17:51:45.547Z,77.27
2023-02-17T17:54:13.817Z,77.15
2023-02-17T17:56:43.270Z,77.26
2023-02-17T17:59:22.874Z,77.23
2023-02-17T18:01:51.396Z,77.25
2023-02-17T18:04:19.736Z,77.34
2023-02-17T18:06:51.198Z,77.35
2023-02-17T18:09:31.404Z,77.43
2023-02-17T18:12:07.216Z,77.39
2023-02-17T18:14:38.578Z,77.35
2023-02-17T18:17:08.865Z,77.43
2023-02-17T18:19:37.585Z,77.65
2023-02-17T18:22:06.347Z,77.50
2023-02-17T18:24:37.089Z,77.64
2023-02-17T18:27:10.470Z,77.75
2023-02-17T18:29:38.843Z,77.71
2023-02-17T18:32:07.197Z,77.75
2023-02-17T18:34:35.883Z,77.80
2023-02-17T18:37:04.503Z,77.93
2023-02-17T18:39:33.392Z,77.92
2023-02-17T18:42:09.862Z,77.98
2023-02-17T18:44:38.594Z,78.05
2023-02-17T18:47:06.856Z,78.18
2023-02-17T18:49:35.591Z,78.06
2023-02-17T18:52:04.140Z,78.15
2023-02-17T18:54:32.452Z,78.18
2023-02-17T18:57:17.603Z,78.08
2023-02-17T18:59:46.163Z,78.25
2023-02-17T19:02:15.262Z,78.27
2023-02-17T19:04:43.793Z,78.18
2023-02-17T19:07:12.233Z,78.23
2023-02-17T19:09:42.673Z,78.41
2023-02-17T19:12:13.234Z,78.45
2023-02-17T19:14:44.114Z,78.65
2023-02-17T19:17:13.006Z,78.60
2023-02-17T19:19:41.951Z,78.78
2023-02-17T19:22:10.803Z,78.70
2023-02-17T19:24:40.809Z,78.78
2023-02-17T19:27:09.858Z,78.75
2023-02-17T19:29:38.267Z,78.76
2023-02-17T19:32:28.216Z,79.11
2023-02-17T19:35:16.766Z,78.94
2023-02-17T19:38:02.997Z,78.76
2023-02-17T19:41:09.939Z,79.05
2023-02-17T19:44:00.315Z,79.22
2023-02-17T19:46:54.666Z,79.21
2023-02-17T19:49:47.113Z,79.30
2023-02-17T19:52:20.251Z,79.55
2023-02-17T19:55:11.388Z,79.36
2023-02-17T19:57:49.895Z,79.49
2023-02-17T20:00:44.296Z,79.60
2023-02-17T20:03:15.590Z,79.67
2023-02-17T20:05:46.316Z,79.69
2023-02-17T20:08:17.329Z,79.83
2023-02-17T20:10:47.689Z,79.72
2023-02-17T20:13:16.068Z,79.80
2023-02-17T20:15:44.691Z,79.88
2023-02-17T20:18:13.255Z,79.94
2023-02-17T20:20:45.410Z,79.69
2023-02-17T20:23:14.397Z,79.80
2023-02-17T20:25:42.584Z,79.83
2023-02-17T20:28:11.150Z,79.84
2023-02-17T20:31:09.003Z,79.85
2023-02-17T20:33:56.346Z,79.66
2023-02-17T20:36:33.456Z,79.80
2023-02-17T20:39:10.716Z,79.70
2023-02-17T20:41:48.090Z,79.81
2023-02-17T20:44:43.289Z,79.73
2023-02-17T20:47:49.439Z,79.81
2023-02-17T20:50:28.627Z,79.71
2023-02-17T20:53:25.512Z,79.67
2023-02-17T20:56:17.858Z,79.65
2023-02-17T20:58:59.268Z,79.57
2023-02-17T21:01:47.604Z,79.51
2023-02-17T21:04:22.470Z,79.54
2023-02-17T21:06:59.370Z,79.47
2023-02-17T21:10:00.356Z,79.38
2023-02-17T21:12:32.068Z,79.46
2023-02-17T21:15:12.923Z,79.23
2023-02-17T21:17:48.990Z,79.33
2023-02-17T21:20:39.149Z,79.21
2023-02-17T21:23:24.972Z,79.36
2023-02-17T21:26:13.274Z,79.38
2023-02-17T21:29:01.058Z,79.39
2023-02-17T21:31:36.757Z,79.53
2023-02-17T21:34:09.728Z,79.51
2023-02-17T21:36:46.383Z,79.27
2023-02-17T21:39:18.745Z,79.26
2023-02-17T21:41:48.811Z,79.33
2023-02-17T21:44:38.491Z,79.26
2023-02-17T21:47:07.528Z,79.29
2023-02-17T21:49:36.440Z,79.26
2023-02-17T21:52:05.485Z,79.27
2023-02-17T21:54:34.375Z,79.31
2023-02-17T21:57:04.416Z,79.31
2023-02-17T21:59:33.253Z,79.45
2023-02-17T22:02:01.476Z,79.31
2023-02-17T22:04:30.724Z,79.20
2023-02-17T22:06:59.496Z,79.11
2023-02-17T22:09:27.739Z,78.86
2023-02-17T22:11:56.075Z,78.67
2023-02-17T22:14:25.574Z,78.63
2023-02-17T22:16:54.373Z,78.56
2023-02-17T22:19:24.328Z,78.49
2023-02-17T22:21:53.867Z,78.40
2023-02-17T22:24:22.354Z,78.30
2023-02-17T22:26:50.839Z,78.27
2023-02-17T22:29:19.254Z,78.13
2023-02-17T22:31:49.818Z,77.78
2023-02-17T22:34:18.375Z,77.71
2023-02-17T22:36:49.558Z,77.40
2023-02-17T22:39:18.128Z,77.18
2023-02-17T22:41:46.495Z,76.90
2023-02-17T22:44:14.720Z,76.78
2023-02-17T22:46:43.071Z,76.71
2023-02-17T22:49:11.343Z,76.53
2023-02-17T22:51:40.311Z,76.68
2023-02-17T22:54:09.393Z,76.42
2023-02-17T22:56:38.048Z,76.45
2023-02-17T22:59:06.868Z,76.39
2023-02-17T23:01:36.713Z,76.38
2023-02-17T23:04:06.152Z,76.26
2023-02-17T23:06:39.518Z,76.04
2023-02-17T23:09:12.014Z,76.15
2023-02-17T23:11:50.695Z,75.98
2023-02-17T23:14:22.128Z,75.92
2023-02-17T23:16:50.625Z,75.66
2023-02-17T23:19:21.411Z,75.65
2023-02-17T23:21:52.860Z,75.76
2023-02-17T23:24:22.536Z,75.67
2023-02-17T23:26:52.083Z,75.72
2023-02-17T23:29:20.679Z,75.68
2023-02-17T23:31:49.449Z,75.51
2023-02-17T23:34:17.935Z,75.63
2023-02-17T23:36:46.968Z,75.56
2023-02-17T23:39:16.517Z,75.47
2023-02-17T23:41:45.384Z,75.35
2023-02-17T23:44:14.844Z,75.22
2023-02-17T23:46:44.740Z,74.97
2023-02-17T23:49:15.591Z,74.78
2023-02-17T23:51:46.279Z,74.53
2023-02-17T23:54:14.966Z,74.48
2023-02-17T23:56:43.684Z,74.32
2023-02-17T23:59:14.288Z,74.11
